Aviation Digital Data Service (ADDS)

Output produced by METARs form (0343 UTC 23 November 2017)
found at http://www.aviationweather.gov/adds/metars/
 
KYIP 222323Z 2300/2324 26003KT P6SM BKN250 
     FM230700 23007KT P6SM OVC100 
     FM231600 23012KT P6SM SCT045 BKN100 OVC250
       
KYKM 222341Z 2300/2324 VRB05KT P6SM BKN080 
     FM230600 VRB04KT P6SM BKN150
       
KYNG 222334Z 2300/2324 29006KT P6SM OVC035 
     TEMPO 2303/2307 OVC028 
     FM231000 22004KT P6SM SCT040 BKN200 
     FM232000 22008KT P6SM BKN050